Time;durP1;ratioP1;P1;durP2;ratioP2;P2;SDS_P1;SDS_P2;PMS_P1;PMS_P2;Temp;Humidity;BMP_temperature;BMP_pressure;BME280_temperature;BME280_humidity;BME280_pressure;Samples;Min_cycle;Max_cycle;Signal;HPM_P1;HPM_P2
2024/04/07 00:00:28;;;;;;;0.40;0.40;;;;;;;17.86;37.73;96615.72;29394;255;64013;-56
2024/04/07 00:00:59;;;;;;;0.40;0.40;;;;;;;17.86;37.71;96615.72;29395;210;63004;-71
2024/04/07 00:01:33;;;;;;;0.40;0.40;;;;;;;17.84;38.09;96612.53;29395;267;63012;-68
2024/04/07 00:02:04;;;;;;;0.40;0.40;;;;;;;17.80;37.63;96608.09;29395;202;63004;-57
2024/04/07 00:02:35;;;;;;;0.40;0.40;;;;;;;17.82;37.68;96620.31;29395;209;63009;-66
2024/04/07 00:03:08;;;;;;;0.40;0.40;;;;;;;17.82;37.71;96614.81;29395;214;63005;-56
2024/04/07 00:03:40;;;;;;;0.50;0.50;;;;;;;17.82;37.94;96603.84;29394;246;64009;-69
2024/04/07 00:04:11;;;;;;;0.40;0.40;;;;;;;17.80;37.29;96606.12;29395;205;63005;-57
2024/04/07 00:04:44;;;;;;;0.40;0.40;;;;;;;17.79;37.70;96610.03;29394;221;64013;-57
2024/04/07 00:05:15;;;;;;;0.40;0.40;;;;;;;17.80;37.57;96610.81;29395;317;63005;-57
2024/04/07 00:05:53;;;;;;;0.50;0.50;;;;;;;17.78;37.67;96602.94;29394;215;64013;-56
2024/04/07 00:06:26;;;;;;;0.40;0.40;;;;;;;17.78;37.47;96611.16;29395;229;63008;-70
2024/04/07 00:06:58;;;;;;;0.40;0.40;;;;;;;17.78;37.84;96605.69;29395;210;63009;-60
2024/04/07 00:07:29;;;;;;;0.40;0.40;;;;;;;17.81;37.54;96599.50;29395;204;63004;-58
2024/04/07 00:08:00;;;;;;;0.40;0.40;;;;;;;17.83;37.77;96590.94;29395;223;63009;-56
2024/04/07 00:08:31;;;;;;;0.47;0.47;;;;;;;17.82;37.31;96592.88;29395;258;63004;-55
2024/04/07 00:09:03;;;;;;;0.40;0.40;;;;;;;17.84;37.76;96590.59;29395;220;63008;-57
2024/04/07 00:09:37;;;;;;;0.40;0.40;;;;;;;17.86;37.52;96590.22;29395;209;63004;-66
2024/04/07 00:10:09;;;;;;;0.40;0.40;;;;;;;17.86;37.47;96588.28;29395;209;63025;-57
2024/04/07 00:10:40;;;;;;;0.40;0.40;;;;;;;17.87;37.42;96584.41;29394;208;64009;-57
2024/04/07 00:11:12;;;;;;;0.40;0.40;;;;;;;17.86;37.53;96591.03;29395;239;63009;-57
2024/04/07 00:11:43;;;;;;;0.40;0.40;;;;;;;17.81;37.61;96585.78;29394;230;64009;-57
2024/04/07 00:12:15;;;;;;;0.68;0.68;;;;;;;17.78;37.85;96586.47;29395;226;63009;-56
2024/04/07 00:12:46;;;;;;;0.60;0.60;;;;;;;17.81;37.42;96590.47;29395;207;63005;-57
2024/04/07 00:13:18;;;;;;;0.40;0.40;;;;;;;17.80;37.69;96586.94;29395;209;63009;-57
2024/04/07 00:13:49;;;;;;;0.52;0.52;;;;;;;17.80;37.45;96589.66;29395;203;63005;-58
2024/04/07 00:14:20;;;;;;;0.32;0.32;;;;;;;17.79;37.91;96588.06;29395;393;63009;-56
2024/04/07 00:14:53;;;;;;;0.40;0.40;;;;;;;17.78;37.73;96580.97;29394;222;64004;-58
2024/04/07 00:15:24;;;;;;;0.40;0.40;;;;;;;17.79;37.82;96581.78;29394;270;64013;-57
2024/04/07 00:15:56;;;;;;;0.40;0.40;;;;;;;17.77;37.35;96590.38;29395;330;63004;-56
2024/04/07 00:16:27;;;;;;;0.40;0.40;;;;;;;17.74;37.71;96580.06;29395;206;63008;-56
2024/04/07 00:16:58;;;;;;;0.40;0.40;;;;;;;17.71;37.79;96594.47;29394;274;64004;-57
2024/04/07 00:17:30;;;;;;;0.40;0.40;;;;;;;17.69;38.16;96588.53;29395;250;63009;-57
2024/04/07 00:18:01;;;;;;;0.40;0.40;;;;;;;17.67;37.88;96596.34;29395;199;63005;-57
2024/04/07 00:18:34;;;;;;;0.40;0.40;;;;;;;17.70;37.77;96590.94;29395;232;63009;-56
2024/04/07 00:19:05;;;;;;;0.40;0.40;;;;;;;17.71;37.95;96591.75;29395;230;63005;-57
2024/04/07 00:19:37;;;;;;;0.40;0.40;;;;;;;17.73;37.66;96579.28;29395;226;63013;-57
2024/04/07 00:20:11;;;;;;;0.40;0.40;;;;;;;17.73;37.80;96578.47;29395;197;63015;-56
2024/04/07 00:20:47;;;;;;;0.40;0.40;;;;;;;17.75;37.75;96593.44;29394;211;64013;-56
2024/04/07 00:21:18;;;;;;;0.40;0.40;;;;;;;17.76;37.46;96594.25;29395;209;63005;-65
2024/04/07 00:21:50;;;;;;;0.40;0.40;;;;;;;17.73;37.72;96594.94;29395;197;63009;-67
2024/04/07 00:22:21;;;;;;;0.40;0.40;;;;;;;17.72;37.35;96591.41;29395;219;63004;-57
2024/04/07 00:22:52;;;;;;;0.40;0.40;;;;;;;17.68;37.87;96595.97;29395;209;63009;-56
2024/04/07 00:23:23;;;;;;;0.40;0.40;;;;;;;17.67;37.93;96596.34;29395;225;63004;-57
2024/04/07 00:23:54;;;;;;;0.40;0.40;;;;;;;17.64;38.31;96597.00;29395;225;63009;-57
2024/04/07 00:24:25;;;;;;;0.40;0.40;;;;;;;17.67;37.72;96596.34;29395;216;63004;-57
2024/04/07 00:24:57;;;;;;;0.40;0.40;;;;;;;17.63;37.93;96595.41;29395;218;63009;-56
2024/04/07 00:25:28;;;;;;;0.40;0.40;;;;;;;17.65;37.63;96587.66;29395;219;63005;-56
2024/04/07 00:26:00;;;;;;;0.40;0.40;;;;;;;17.67;37.62;96591.63;29394;206;64014;-57
2024/04/07 00:26:31;;;;;;;0.40;0.40;;;;;;;17.70;37.58;96590.12;29395;255;63005;-57
2024/04/07 00:27:03;;;;;;;0.40;0.40;;;;;;;17.72;37.59;96590.59;29395;262;63009;-57
2024/04/07 00:27:35;;;;;;;0.40;0.40;;;;;;;17.73;37.32;96589.44;29395;245;63016;-57
2024/04/07 00:28:06;;;;;;;0.40;0.40;;;;;;;17.77;37.50;96579.37;29395;214;63009;-56
2024/04/07 00:28:37;;;;;;;0.40;0.40;;;;;;;17.77;37.46;96579.37;29395;221;63005;-56
2024/04/07 00:29:11;;;;;;;0.40;0.40;;;;;;;17.77;37.69;96576.63;29395;285;63009;-55
2024/04/07 00:29:47;;;;;;;0.50;0.50;;;;;;;17.77;37.73;96584.88;29395;241;63004;-57
2024/04/07 00:30:20;;;;;;;0.40;0.40;;;;;;;17.76;37.75;96586.03;29394;254;64013;-56
2024/04/07 00:30:51;;;;;;;0.40;0.40;;;;;;;17.79;37.47;96570.81;29395;213;63014;-56
2024/04/07 00:31:22;;;;;;;0.50;0.50;;;;;;;17.79;37.75;96574.34;29395;204;63026;-56
2024/04/07 00:31:54;;;;;;;0.40;0.40;;;;;;;17.78;37.13;96570.00;29395;276;63004;-57
2024/04/07 00:32:25;;;;;;;0.40;0.40;;;;;;;17.80;37.49;96581.44;29395;302;63009;-57
2024/04/07 00:32:57;;;;;;;0.82;0.82;;;;;;;17.81;37.30;96574.81;29395;204;63015;-55
2024/04/07 00:33:28;;;;;;;0.50;0.50;;;;;;;17.80;37.70;96564.97;29395;297;63009;-56
2024/04/07 00:34:00;;;;;;;0.40;0.40;;;;;;;17.81;37.32;96574.81;29394;279;64009;-57
2024/04/07 00:34:31;;;;;;;0.50;0.50;;;;;;;17.82;37.29;96568.16;29395;297;63009;-56
2024/04/07 00:35:03;;;;;;;0.40;0.40;;;;;;;17.79;37.32;96571.59;29395;218;63005;-58
2024/04/07 00:35:34;;;;;;;0.50;0.50;;;;;;;17.79;37.18;96570.81;29395;238;63026;-70
2024/04/07 00:36:06;;;;;;;0.40;0.40;;;;;;;17.79;36.89;96570.81;29395;202;63005;-56
2024/04/07 00:36:38;;;;;;;0.40;0.40;;;;;;;17.77;36.94;96570.34;29394;226;64013;-56
2024/04/07 00:37:09;;;;;;;0.40;0.40;;;;;;;17.75;36.92;96570.69;29395;221;63004;-56
2024/04/07 00:37:40;;;;;;;0.40;0.40;;;;;;;17.73;37.32;96567.50;29395;202;63009;-56
2024/04/07 00:38:12;;;;;;;0.40;0.40;;;;;;;17.72;37.23;96574.94;29395;221;63004;-57
2024/04/07 00:38:43;;;;;;;0.40;0.40;;;;;;;17.71;37.74;96576.06;29395;227;63009;-56
2024/04/07 00:39:14;;;;;;;0.40;0.40;;;;;;;17.70;37.38;96573.69;29395;211;63004;-58
2024/04/07 00:39:45;;;;;;;0.40;0.40;;;;;;;17.68;37.95;96574.03;29395;218;63008;-56
2024/04/07 00:40:17;;;;;;;0.40;0.40;;;;;;;17.70;37.03;96579.16;29395;234;63005;-56
2024/04/07 00:40:50;;;;;;;0.40;0.40;;;;;;;17.68;37.17;96575.97;29395;267;63009;-57
2024/04/07 00:41:21;;;;;;;0.40;0.40;;;;;;;17.66;37.54;96584.56;29395;310;63005;-55
2024/04/07 00:41:53;;;;;;;0.40;0.40;;;;;;;17.64;37.15;96581.34;29394;218;64013;-56
2024/04/07 00:42:26;;;;;;;0.40;0.40;;;;;;;17.66;37.46;96583.78;29395;275;63005;-57
2024/04/07 00:42:57;;;;;;;0.40;0.40;;;;;;;17.65;37.31;96590.41;29394;223;64013;-56
2024/04/07 00:43:29;;;;;;;0.40;0.40;;;;;;;17.65;37.56;96582.19;29395;218;63000;-57
2024/04/07 00:44:00;;;;;;;0.40;0.40;;;;;;;17.65;37.31;96588.47;29395;285;63009;-57
2024/04/07 00:44:32;;;;;;;0.40;0.40;;;;;;;17.64;37.18;96592.31;29395;224;63004;-56
2024/04/07 00:45:04;;;;;;;0.40;0.40;;;;;;;17.63;37.49;96584.44;29395;198;63009;-57
2024/04/07 00:45:35;;;;;;;0.40;0.40;;;;;;;17.63;37.47;96587.97;29395;218;63004;-56
2024/04/07 00:46:07;;;;;;;0.40;0.40;;;;;;;17.64;37.12;96586.03;29395;242;63009;-57
2024/04/07 00:46:41;;;;;;;0.40;0.40;;;;;;;17.64;37.26;96591.53;29395;202;63004;-56
2024/04/07 00:47:12;;;;;;;0.50;0.50;;;;;;;17.65;37.28;96588.47;29395;208;63008;-56
2024/04/07 00:47:43;;;;;;;0.40;0.40;;;;;;;17.63;36.65;96582.50;29394;206;64009;-69
2024/04/07 00:48:17;;;;;;;0.50;0.50;;;;;;;17.65;37.27;96582.19;29395;222;63017;-57
2024/04/07 00:48:48;;;;;;;0.40;0.40;;;;;;;17.66;37.18;96589.25;29395;220;63014;-57
2024/04/07 00:49:20;;;;;;;0.40;0.40;;;;;;;17.67;36.24;96577.16;29395;209;63009;-71
2024/04/07 00:49:51;;;;;;;0.50;0.50;;;;;;;17.70;36.52;96568.19;29395;197;63005;-56
2024/04/07 00:50:22;;;;;;;0.40;0.40;;;;;;;17.69;36.62;96583.06;29395;218;63009;-68
2024/04/07 00:50:55;;;;;;;0.40;0.40;;;;;;;17.69;36.74;96567.38;29395;256;63005;-56
2024/04/07 00:51:27;;;;;;;0.40;0.40;;;;;;;17.71;36.81;96567.03;29395;216;63009;-57
2024/04/07 00:52:00;;;;;;;0.40;0.40;;;;;;;17.73;36.83;96570.25;29394;213;64009;-57
2024/04/07 00:52:32;;;;;;;0.40;0.40;;;;;;;17.77;36.25;96570.34;29394;202;64013;-57
2024/04/07 00:53:08;;;;;;;0.40;0.40;;;;;;;17.78;36.26;96569.22;29395;212;63004;-57
2024/04/07 00:53:39;;;;;;;0.50;0.50;;;;;;;17.79;36.33;96565.31;29395;213;63009;-57
2024/04/07 00:54:12;;;;;;;0.40;0.40;;;;;;;17.80;36.37;96566.91;29395;210;63011;-56
2024/04/07 00:54:45;;;;;;;0.50;0.50;;;;;;;17.81;36.54;96569.31;29395;212;63008;-56
2024/04/07 00:55:16;;;;;;;0.40;0.40;;;;;;;17.80;36.47;96573.22;29395;242;63018;-56
2024/04/07 00:55:48;;;;;;;0.50;0.50;;;;;;;17.81;36.53;96568.50;29394;221;64014;-57
2024/04/07 00:56:20;;;;;;;0.50;0.50;;;;;;;17.82;36.26;96565.44;29395;202;63005;-58
2024/04/07 00:56:51;;;;;;;0.40;0.40;;;;;;;17.81;36.68;96563.81;29395;261;63009;-57
2024/04/07 00:57:24;;;;;;;0.45;0.45;;;;;;;17.82;37.03;96565.44;29395;209;63005;-57
2024/04/07 00:57:56;;;;;;;0.47;0.47;;;;;;;17.84;36.95;96567.81;29394;203;64013;-58
2024/04/07 00:58:28;;;;;;;0.40;0.40;;;;;;;17.85;36.45;96570.22;29395;225;63004;-57
2024/04/07 00:59:02;;;;;;;0.50;0.50;;;;;;;17.89;36.23;96562.91;29395;196;63009;-57
2024/04/07 00:59:35;;;;;;;0.40;0.40;;;;;;;17.86;36.38;96563.59;29395;234;63004;-70
2024/04/07 01:00:09;;;;;;;0.40;0.40;;;;;;;17.87;36.80;96567.94;29395;259;63009;-56
2024/04/07 01:00:44;;;;;;;0.40;0.40;;;;;;;17.86;36.51;96560.84;29395;256;63004;-56
2024/04/07 01:01:15;;;;;;;0.40;0.40;;;;;;;17.86;36.78;96566.34;29395;239;63008;-57
2024/04/07 01:01:46;;;;;;;0.50;0.50;;;;;;;17.85;36.16;96567.47;29395;252;63006;-56
2024/04/07 01:02:17;;;;;;;0.40;0.40;;;;;;;17.84;36.61;96560.41;29395;215;63008;-57
2024/04/07 01:02:49;;;;;;;0.43;0.43;;;;;;;17.81;36.60;96565.78;29395;216;63005;-58
2024/04/07 01:03:20;;;;;;;0.40;0.40;;;;;;;17.80;36.54;96558.69;29394;214;64014;-55
2024/04/07 01:03:51;;;;;;;0.40;0.40;;;;;;;17.79;36.38;96559.84;29395;240;63005;-56
2024/04/07 01:04:23;;;;;;;0.40;0.40;;;;;;;17.78;36.54;96559.03;29395;206;63009;-57
2024/04/07 01:04:54;;;;;;;0.40;0.40;;;;;;;17.77;36.38;96560.19;29395;207;63008;-56
2024/04/07 01:05:25;;;;;;;0.40;0.40;;;;;;;17.73;36.36;96557.31;29395;202;63009;-58
2024/04/07 01:05:56;;;;;;;0.40;0.40;;;;;;;17.73;36.62;96562.81;29395;224;63004;-57
2024/04/07 01:06:28;;;;;;;0.40;0.40;;;;;;;17.72;36.91;96554.94;29395;246;63019;-57
2024/04/07 01:07:00;;;;;;;0.40;0.40;;;;;;;17.71;36.74;96561.56;29395;256;63004;-71
2024/04/07 01:07:32;;;;;;;0.40;0.40;;;;;;;17.69;36.74;96555.63;29394;218;64013;-57
2024/04/07 01:08:05;;;;;;;0.40;0.40;;;;;;;17.66;37.04;96557.13;29395;230;63004;-57
2024/04/07 01:08:37;;;;;;;0.40;0.40;;;;;;;17.65;37.34;96555.53;29395;215;63027;-57
2024/04/07 01:09:09;;;;;;;0.40;0.40;;;;;;;17.67;36.96;96557.94;29395;230;63004;-57
2024/04/07 01:09:42;;;;;;;0.40;0.40;;;;;;;17.67;36.90;96557.94;29395;240;63009;-57
2024/04/07 01:10:13;;;;;;;0.40;0.40;;;;;;;17.68;36.95;96554.03;29395;267;63005;-56
2024/04/07 01:10:51;;;;;;;0.40;0.40;;;;;;;17.69;36.75;96555.63;29395;239;63009;-57
2024/04/07 01:11:29;;;;;;;0.40;0.40;;;;;;;17.67;36.90;96560.69;29395;225;63005;-57
2024/04/07 01:12:24;;;;;;;0.88;0.88;;;;;;;17.65;37.10;96557.47;29395;204;63009;-57
2024/04/07 01:12:55;;;;;;;0.40;0.40;;;;;;;17.67;36.84;96557.94;29394;287;64009;-57
2024/04/07 01:13:27;;;;;;;0.40;0.40;;;;;;;17.65;36.89;96560.22;29395;245;63009;-57
2024/04/07 01:14:01;;;;;;;0.40;0.40;;;;;;;17.64;37.03;96572.31;29395;223;63004;-57
2024/04/07 01:14:32;;;;;;;0.47;0.47;;;;;;;17.64;37.11;96564.88;29395;291;63009;-56
2024/04/07 01:15:04;;;;;;;0.40;0.40;;;;;;;17.68;36.52;96565.00;29395;209;63004;-56
2024/04/07 01:15:37;;;;;;;0.40;0.40;;;;;;;17.67;36.88;96566.94;29395;214;63009;-57
2024/04/07 01:16:09;;;;;;;0.40;0.40;;;;;;;17.66;36.60;96561.81;29395;245;63004;-57
2024/04/07 01:16:40;;;;;;;0.50;0.50;;;;;;;17.67;37.12;96569.69;29395;226;63008;-57
2024/04/07 01:17:11;;;;;;;0.40;0.40;;;;;;;17.65;36.90;96576.69;29394;199;64009;-57
2024/04/07 01:17:43;;;;;;;0.40;0.40;;;;;;;17.63;37.17;96567.97;29395;206;63009;-57
2024/04/07 01:18:14;;;;;;;0.40;0.40;;;;;;;17.62;37.05;96577.34;29395;198;63011;-56
2024/04/07 01:18:45;;;;;;;0.40;0.40;;;;;;;17.60;37.25;96574.16;29395;240;63009;-57
2024/04/07 01:19:16;;;;;;;0.40;0.40;;;;;;;17.57;37.53;96563.84;29395;233;63005;-56
2024/04/07 01:19:50;;;;;;;0.40;0.40;;;;;;;17.54;37.54;96572.78;29395;215;63009;-71
2024/04/07 01:20:22;;;;;;;0.40;0.40;;;;;;;17.53;37.48;96571.19;29395;231;63005;-57
2024/04/07 01:20:54;;;;;;;0.40;0.40;;;;;;;17.55;37.30;96568.88;29395;220;63009;-57
2024/04/07 01:21:25;;;;;;;0.47;0.47;;;;;;;17.57;37.21;96570.16;29395;208;63004;-56
2024/04/07 01:21:56;;;;;;;0.43;0.43;;;;;;;17.58;37.38;96573.69;29395;220;63018;-56
2024/04/07 01:22:29;;;;;;;0.50;0.50;;;;;;;17.57;37.00;96567.41;29394;262;64009;-58
2024/04/07 01:23:03;;;;;;;0.40;0.40;;;;;;;17.56;37.38;96571.28;29395;238;63009;-57
2024/04/07 01:23:34;;;;;;;0.40;0.40;;;;;;;17.55;37.18;96568.88;29395;200;63004;-57
2024/04/07 01:24:06;;;;;;;0.40;0.40;;;;;;;17.55;37.37;96571.63;29395;207;63008;-57
2024/04/07 01:24:37;;;;;;;0.50;0.50;;;;;;;17.55;37.00;96574.38;29395;381;63005;-56
2024/04/07 01:25:08;;;;;;;0.55;0.55;;;;;;;17.53;37.53;96574.72;29395;217;63009;-57
2024/04/07 01:25:40;;;;;;;0.40;0.40;;;;;;;17.51;37.17;96576.22;29395;242;63010;-56
2024/04/07 01:26:11;;;;;;;0.40;0.40;;;;;;;17.49;37.59;96578.50;29395;217;63009;-57
2024/04/07 01:26:42;;;;;;;0.40;0.40;;;;;;;17.47;37.31;96575.28;29395;296;63005;-56
2024/04/07 01:27:13;;;;;;;0.40;0.40;;;;;;;17.45;37.89;96578.37;29395;257;63009;-56
2024/04/07 01:28:06;;;;;;;0.40;0.40;;;;;;;17.43;37.72;96588.91;29394;267;64009;-57
2024/04/07 01:28:38;;;;;;;0.40;0.40;;;;;;;17.39;38.05;96580.56;29395;213;63019;-57
2024/04/07 01:29:09;;;;;;;0.40;0.40;;;;;;;17.38;37.79;96587.19;29395;212;63004;-69
2024/04/07 01:29:41;;;;;;;0.40;0.40;;;;;;;17.37;37.76;96588.31;29395;207;63009;-57
2024/04/07 01:30:12;;;;;;;0.40;0.40;;;;;;;17.36;37.69;96583.97;29395;366;63004;-57
2024/04/07 01:30:43;;;;;;;0.40;0.40;;;;;;;17.36;37.75;96589.47;29395;239;63009;-56
2024/04/07 01:31:14;;;;;;;0.40;0.40;;;;;;;17.36;37.57;96586.72;29395;279;63004;-57
2024/04/07 01:31:45;;;;;;;0.40;0.40;;;;;;;17.35;37.74;96581.59;29395;196;63008;-57
2024/04/07 01:32:17;;;;;;;0.40;0.40;;;;;;;17.34;37.77;96582.72;29395;248;63005;-57
2024/04/07 01:32:48;;;;;;;0.40;0.40;;;;;;;17.33;37.81;96592.91;29394;235;64014;-57
2024/04/07 01:33:20;;;;;;;0.40;0.40;;;;;;;17.32;38.14;96583.09;29395;198;63005;-56
2024/04/07 01:33:53;;;;;;;0.50;0.50;;;;;;;17.32;37.63;96594.06;29395;220;63009;-57
2024/04/07 01:34:25;;;;;;;0.40;0.40;;;;;;;17.30;37.53;96592.81;29395;233;63005;-57
2024/04/07 01:34:57;;;;;;;0.40;0.40;;;;;;;17.30;38.01;96593.59;29395;240;63009;-56
2024/04/07 01:35:29;;;;;;;0.50;0.50;;;;;;;17.29;37.84;96586.53;29395;217;63005;-57
2024/04/07 01:36:01;;;;;;;0.40;0.40;;;;;;;17.28;37.84;96592.34;29395;230;63024;-57
2024/04/07 01:36:33;;;;;;;0.40;0.40;;;;;;;17.26;37.99;96591.88;29394;202;64009;-57
2024/04/07 01:37:04;;;;;;;0.40;0.40;;;;;;;17.23;37.72;96596.13;29395;241;63009;-57
2024/04/07 01:37:36;;;;;;;0.40;0.40;;;;;;;17.20;37.91;96594.06;29395;335;63004;-58
2024/04/07 01:38:07;;;;;;;0.40;0.40;;;;;;;17.20;37.89;96594.06;29395;280;63009;-56
2024/04/07 01:38:38;;;;;;;0.40;0.40;;;;;;;17.18;37.90;96593.59;29395;204;63004;-57
2024/04/07 01:39:09;;;;;;;0.40;0.40;;;;;;;17.17;37.98;96592.00;29395;196;63008;-57
2024/04/07 01:39:41;;;;;;;0.40;0.40;;;;;;;17.16;37.67;96598.62;29394;203;64009;-57
2024/04/07 01:40:13;;;;;;;0.47;0.47;;;;;;;17.13;38.13;96593.81;29395;221;63009;-57
2024/04/07 01:40:44;;;;;;;0.40;0.40;;;;;;;17.12;37.99;96597.69;29395;246;63005;-57
2024/04/07 01:41:16;;;;;;;0.40;0.40;;;;;;;17.08;38.59;96596.78;29395;219;63009;-57
2024/04/07 01:41:47;;;;;;;0.40;0.40;;;;;;;17.07;38.71;96604.19;29395;264;63005;-57
2024/04/07 01:42:18;;;;;;;0.40;0.40;;;;;;;17.06;38.34;96607.28;29395;258;63009;-58
2024/04/07 01:42:52;;;;;;;0.40;0.40;;;;;;;17.05;38.44;96601.00;29395;225;63005;-57
2024/04/07 01:43:24;;;;;;;0.40;0.40;;;;;;;17.06;38.92;96601.81;29395;321;63009;-57
2024/04/07 01:43:55;;;;;;;0.40;0.40;;;;;;;17.05;38.46;96597.47;29395;219;63004;-58
2024/04/07 01:44:26;;;;;;;0.40;0.40;;;;;;;17.06;38.26;96602.59;29395;198;63009;-57
2024/04/07 01:44:57;;;;;;;0.40;0.40;;;;;;;17.10;38.05;96594.50;29394;203;64009;-57
2024/04/07 01:45:29;;;;;;;1.52;1.52;;;;;;;17.11;37.96;96601.59;29395;339;63009;-57
2024/04/07 01:46:04;;;;;;;0.40;0.40;;;;;;;17.10;37.73;96605.47;29395;238;63004;-57
2024/04/07 01:46:35;;;;;;;0.40;0.40;;;;;;;17.09;38.08;96595.63;29395;264;63013;-56
2024/04/07 01:47:06;;;;;;;0.40;0.40;;;;;;;17.08;37.93;96596.78;29394;212;64005;-57
2024/04/07 01:47:38;;;;;;;0.40;0.40;;;;;;;17.07;38.45;96606.16;29395;218;63009;-56
2024/04/07 01:48:11;;;;;;;0.40;0.40;;;;;;;17.11;38.01;96592.56;29395;214;63005;-57
2024/04/07 01:48:42;;;;;;;0.40;0.40;;;;;;;17.11;37.92;96601.59;29394;224;64013;-57
2024/04/07 01:49:13;;;;;;;0.40;0.40;;;;;;;17.12;37.48;96597.69;29394;208;64009;-57
2024/04/07 01:49:45;;;;;;;0.40;0.40;;;;;;;17.10;38.31;96610.94;29394;227;64013;-57
2024/04/07 01:50:16;;;;;;;0.40;0.40;;;;;;;17.08;38.29;96607.75;29395;206;63005;-57
2024/04/07 01:50:50;;;;;;;0.40;0.40;;;;;;;17.08;38.17;96594.03;29395;214;63009;-57
2024/04/07 01:51:21;;;;;;;0.40;0.40;;;;;;;17.09;38.06;96596.44;29395;204;63004;-57
2024/04/07 01:51:52;;;;;;;0.40;0.40;;;;;;;17.11;38.25;96598.84;29395;202;63009;-56
2024/04/07 01:52:24;;;;;;;0.40;0.40;;;;;;;17.12;38.09;96594.16;29395;209;63004;-57
2024/04/07 01:52:55;;;;;;;0.40;0.40;;;;;;;17.11;38.21;96590.62;29395;232;63009;-58
2024/04/07 01:53:26;;;;;;;0.40;0.40;;;;;;;17.12;38.15;96592.22;29395;219;63004;-56
2024/04/07 01:53:57;;;;;;;0.40;0.40;;;;;;;17.12;38.27;96597.69;29394;209;64008;-57
2024/04/07 01:54:32;;;;;;;0.47;0.47;;;;;;;17.12;38.37;96589.47;29395;221;63004;-58
2024/04/07 01:55:07;;;;;;;0.40;0.40;;;;;;;17.17;38.02;96599.41;29394;268;64014;-57
2024/04/07 01:55:39;;;;;;;0.40;0.40;;;;;;;17.17;37.95;96583.78;29395;240;63005;-57
2024/04/07 01:56:10;;;;;;;0.40;0.40;;;;;;;17.16;37.98;96593.13;29394;228;64013;-57
2024/04/07 01:56:41;;;;;;;0.40;0.40;;;;;;;17.14;38.12;96587.19;29395;214;63005;-57
2024/04/07 01:57:12;;;;;;;0.40;0.40;;;;;;;17.12;38.30;96592.22;29395;234;63009;-57
2024/04/07 01:57:45;;;;;;;0.40;0.40;;;;;;;17.12;37.81;96584.00;29395;235;63005;-57
2024/04/07 01:58:16;;;;;;;0.40;0.40;;;;;;;17.13;38.17;96587.53;29395;231;63009;-56
2024/04/07 01:58:47;;;;;;;0.40;0.40;;;;;;;17.13;38.55;96593.03;29395;232;63004;-57
2024/04/07 01:59:19;;;;;;;0.40;0.40;;;;;;;17.12;38.34;96585.94;29395;231;63009;-57
2024/04/07 01:59:55;;;;;;;0.40;0.40;;;;;;;17.12;38.21;96586.75;29394;221;64009;-57
2024/04/07 02:00:26;;;;;;;0.40;0.40;;;;;;;17.12;38.14;96583.19;29394;332;64012;-57
2024/04/07 02:00:57;;;;;;;0.40;0.40;;;;;;;17.10;38.04;96589.03;29395;197;63004;-57
2024/04/07 02:01:29;;;;;;;0.40;0.40;;;;;;;17.11;38.26;96581.59;29394;211;64014;-56
2024/04/07 02:02:00;;;;;;;0.40;0.40;;;;;;;17.13;38.23;96587.53;29395;260;63008;-57
2024/04/07 02:02:31;;;;;;;0.40;0.40;;;;;;;17.12;38.34;96586.75;29395;307;63009;-57
2024/04/07 02:03:03;;;;;;;0.40;0.40;;;;;;;17.12;38.59;96585.94;29395;207;63005;-56
2024/04/07 02:03:34;;;;;;;0.47;0.47;;;;;;;17.17;38.32;96585.72;29395;237;63009;-67
2024/04/07 02:04:06;;;;;;;0.40;0.40;;;;;;;17.19;38.00;96584.22;29395;324;63005;-57
2024/04/07 02:04:38;;;;;;;0.40;0.40;;;;;;;17.20;38.17;96583.09;29395;213;63009;-57
2024/04/07 02:05:09;;;;;;;0.40;0.40;;;;;;;17.20;38.22;96576.81;29395;207;63005;-57
2024/04/07 02:05:40;;;;;;;0.40;0.40;;;;;;;17.19;38.04;96581.50;29395;214;63009;-69
2024/04/07 02:06:12;;;;;;;0.40;0.40;;;;;;;17.21;38.15;96581.16;29394;215;64009;-57
2024/04/07 02:06:43;;;;;;;0.40;0.40;;;;;;;17.20;38.55;96577.59;29395;203;63009;-57
2024/04/07 02:07:19;;;;;;;0.40;0.40;;;;;;;17.22;37.86;96574.53;29395;230;63004;-56
2024/04/07 02:07:51;;;;;;;0.40;0.40;;;;;;;17.23;38.24;96582.41;29395;199;63009;-56
2024/04/07 02:08:22;;;;;;;0.40;0.40;;;;;;;17.22;38.22;96571.78;29395;230;63004;-57
2024/04/07 02:08:54;;;;;;;0.40;0.40;;;;;;;17.22;38.20;96575.31;29395;346;63009;-57
2024/04/07 02:09:31;;;;;;;0.60;0.60;;;;;;;17.25;38.22;96573.84;29395;208;63005;-57
2024/04/07 02:10:03;;;;;;;0.40;0.40;;;;;;;17.24;38.13;96573.03;29394;212;64014;-57
2024/04/07 02:10:34;;;;;;;0.40;0.40;;;;;;;17.26;38.19;96576.25;29395;200;63005;-57
2024/04/07 02:11:05;;;;;;;0.40;0.40;;;;;;;17.25;38.30;96574.62;29395;215;63009;-56
2024/04/07 02:11:36;;;;;;;0.40;0.40;;;;;;;17.25;38.29;96577.38;29395;226;63005;-56
2024/04/07 02:12:07;;;;;;;0.40;0.40;;;;;;;17.25;37.93;96579.31;29395;238;63009;-56
2024/04/07 02:12:39;;;;;;;0.40;0.40;;;;;;;17.28;38.25;96575.91;29395;198;63005;-58
2024/04/07 02:13:10;;;;;;;0.40;0.40;;;;;;;17.30;38.26;96574.41;29395;211;63009;-55
2024/04/07 02:13:41;;;;;;;0.40;0.40;;;;;;;17.27;38.15;96575.09;29395;232;63004;-56
2024/04/07 02:14:14;;;;;;;0.40;0.40;;;;;;;17.25;38.25;96574.62;29395;232;63009;-57
2024/04/07 02:14:45;;;;;;;0.40;0.40;;;;;;;17.23;38.32;96579.66;29395;216;63004;-56
2024/04/07 02:15:16;;;;;;;0.40;0.40;;;;;;;17.22;38.39;96575.31;29394;346;64013;-58
2024/04/07 02:15:48;;;;;;;0.40;0.40;;;;;;;17.22;38.32;96574.53;29395;254;63004;-57
2024/04/07 02:16:20;;;;;;;0.40;0.40;;;;;;;17.20;38.40;96576.81;29395;292;63008;-56
2024/04/07 02:16:51;;;;;;;0.40;0.40;;;;;;;17.18;38.20;96568.12;29395;198;63005;-58
2024/04/07 02:17:23;;;;;;;0.40;0.40;;;;;;;17.21;38.58;96584.69;29395;205;63009;-57
2024/04/07 02:17:54;;;;;;;0.40;0.40;;;;;;;17.24;38.49;96573.03;29395;258;63005;-57
2024/04/07 02:18:26;;;;;;;0.40;0.40;;;;;;;17.24;38.70;96577.72;29395;226;63020;-55
2024/04/07 02:18:57;;;;;;;0.40;0.40;;;;;;;17.23;38.63;96578.87;29395;210;63005;-68
2024/04/07 02:19:29;;;;;;;0.40;0.40;;;;;;;17.24;38.63;96575.78;29394;198;64013;-55
2024/04/07 02:20:00;;;;;;;0.40;0.40;;;;;;;17.26;38.55;96575.44;29395;219;63005;-56
2024/04/07 02:20:32;;;;;;;0.40;0.40;;;;;;;17.24;38.46;96578.53;29394;224;64013;-56
2024/04/07 02:21:03;;;;;;;0.40;0.40;;;;;;;17.27;38.39;96568.81;29395;197;63004;-56
2024/04/07 02:21:35;;;;;;;0.40;0.40;;;;;;;17.27;38.42;96571.56;29394;250;64013;-55
2024/04/07 02:22:06;;;;;;;0.40;0.40;;;;;;;17.26;38.93;96583.66;29395;252;63004;-56
2024/04/07 02:22:41;;;;;;;0.55;0.55;;;;;;;17.24;38.73;96570.28;29395;202;63009;-56
2024/04/07 02:23:12;;;;;;;0.40;0.40;;;;;;;17.27;38.40;96577.03;29395;342;63004;-57
2024/04/07 02:23:43;;;;;;;0.40;0.40;;;;;;;17.27;38.35;96574.28;29395;209;63008;-56
2024/04/07 02:24:15;;;;;;;0.40;0.40;;;;;;;17.26;38.29;96573.50;29395;299;63005;-56
2024/04/07 02:24:46;;;;;;;0.40;0.40;;;;;;;17.27;38.48;96569.63;29395;204;63009;-56
2024/04/07 02:25:17;;;;;;;0.65;0.65;;;;;;;17.27;38.29;96572.34;29395;221;63005;-56
2024/04/07 02:25:48;;;;;;;0.40;0.40;;;;;;;17.27;38.48;96569.63;29395;202;63009;-56
2024/04/07 02:26:22;;;;;;;0.40;0.40;;;;;;;17.26;38.50;96570.75;29395;202;63005;-56
2024/04/07 02:26:53;;;;;;;0.40;0.40;;;;;;;17.27;38.72;96572.34;29394;258;64013;-69
2024/04/07 02:27:25;;;;;;;0.40;0.40;;;;;;;17.26;38.79;96578.97;29395;233;63005;-57
2024/04/07 02:27:56;;;;;;;0.40;0.40;;;;;;;17.27;38.71;96577.03;29394;202;64013;-56
2024/04/07 02:28:27;;;;;;;0.40;0.40;;;;;;;17.28;39.08;96571.22;29395;302;63004;-56
2024/04/07 02:28:59;;;;;;;0.47;0.47;;;;;;;17.28;39.26;96568.47;29394;205;64013;-56
2024/04/07 02:29:30;;;;;;;0.40;0.40;;;;;;;17.28;38.74;96573.97;29395;213;63004;-56
2024/04/07 02:30:04;;;;;;;0.40;0.40;;;;;;;17.27;39.24;96572.34;29395;203;63009;-56
2024/04/07 02:30:36;;;;;;;0.40;0.40;;;;;;;17.28;38.69;96578.63;29395;276;63004;-56
2024/04/07 02:31:07;;;;;;;0.43;0.43;;;;;;;17.27;38.97;96577.84;29395;197;63008;-57
2024/04/07 02:31:41;;;;;;;0.40;0.40;;;;;;;17.26;39.35;96581.72;29394;220;64009;-56
2024/04/07 02:32:12;;;;;;;0.40;0.40;;;;;;;17.27;39.17;96572.34;29395;370;63009;-56
2024/04/07 02:32:43;;;;;;;0.40;0.40;;;;;;;17.29;39.08;96581.03;29395;213;63005;-56